Time;durP1;ratioP1;P1;durP2;ratioP2;P2;SDS_P1;SDS_P2;PMS_P1;PMS_P2;Temp;Humidity;BMP_temperature;BMP_pressure;BME280_temperature;BME280_humidity;BME280_pressure;Samples;Min_cycle;Max_cycle;Signal;HPM_P1;HPM_P2
2023/07/31 00:03:52;;;;;;;2.25;0.90;;;;;;;14.83;100.00;98071.78;15283175;19;20018;-77
2023/07/31 00:09:17;;;;;;;1.98;0.70;;;;;;;14.93;100.00;98064.13;15290873;19;20074;-77
2023/07/31 00:14:50;;;;;;;1.88;0.88;;;;;;;15.01;100.00;98061.25;15289385;19;20082;-77
2023/07/31 00:20:15;;;;;;;1.83;0.70;;;;;;;15.04;100.00;98060.84;15284514;19;20337;-76
2023/07/31 00:25:47;;;;;;;3.47;1.10;;;;;;;15.05;100.00;98048.97;15287450;19;20086;-76
2023/07/31 00:31:14;;;;;;;4.00;0.90;;;;;;;15.01;100.00;98058.53;15290340;19;20478;-76
2023/07/31 00:36:39;;;;;;;3.08;1.05;;;;;;;14.96;100.00;98050.16;15285996;19;20656;-77
2023/07/31 00:42:05;;;;;;;2.78;1.00;;;;;;;14.91;100.00;98055.34;15289131;19;20086;-77
2023/07/31 00:47:31;;;;;;;2.70;1.10;;;;;;;14.87;100.00;98056.78;15289532;19;20029;-77
2023/07/31 00:52:57;;;;;;;2.05;0.95;;;;;;;14.79;100.00;98061.31;15284862;19;20018;-76
2023/07/31 00:58:21;;;;;;;2.22;0.93;;;;;;;14.73;100.00;98066.69;15285541;19;20494;-75
2023/07/31 01:03:48;;;;;;;3.03;1.10;;;;;;;14.69;100.00;98068.97;15285703;19;20463;-76
2023/07/31 01:09:21;;;;;;;1.92;0.90;;;;;;;14.64;100.00;98074.94;15279686;19;20018;-76
2023/07/31 01:15:01;;;;;;;3.45;1.23;;;;;;;14.57;100.00;98074.06;15284645;19;20750;-75
2023/07/31 01:20:29;;;;;;;3.67;1.17;;;;;;;14.54;100.00;98073.59;15284238;19;20034;-75
2023/07/31 01:26:12;;;;;;;3.03;1.02;;;;;;;14.51;100.00;98074.00;15279093;19;20020;-76
2023/07/31 01:31:39;;;;;;;2.72;1.13;;;;;;;14.44;100.00;98063.91;15297965;19;20107;-75
2023/07/31 01:37:06;;;;;;;3.25;0.95;;;;;;;14.41;100.00;98064.31;15300344;19;20029;-76
2023/07/31 01:42:33;;;;;;;4.55;1.20;;;;;;;14.38;100.00;98051.16;15299913;19;20003;-76
2023/07/31 01:47:59;;;;;;;1.80;1.00;;;;;;;14.39;100.00;98044.72;15328721;19;20014;-77
2023/07/31 01:53:24;;;;;;;5.07;1.00;;;;;;;14.39;100.00;98042.00;15309018;19;20018;-76
2023/07/31 01:58:51;;;;;;;2.10;0.95;;;;;;;14.38;100.00;98040.31;15293108;19;20029;-76
2023/07/31 02:04:15;;;;;;;3.75;1.20;;;;;;;14.38;100.00;98025.91;15299227;19;20359;-76
2023/07/31 02:09:40;;;;;;;4.63;1.27;;;;;;;14.39;100.00;98016.75;15294065;19;20014;-76
2023/07/31 02:15:15;;;;;;;2.25;1.02;;;;;;;14.39;100.00;98019.47;15298690;19;20017;-77
2023/07/31 02:20:39;;;;;;;2.90;1.00;;;;;;;14.39;100.00;98020.31;15300049;19;20018;-77
2023/07/31 02:26:04;;;;;;;2.10;1.02;;;;;;;14.37;100.00;98008.84;15299360;19;20070;-76
2023/07/31 02:31:31;;;;;;;2.70;1.00;;;;;;;14.36;100.00;98025.28;15293890;19;20002;-76
2023/07/31 02:36:56;;;;;;;3.85;1.20;;;;;;;14.31;100.00;98036.69;15296856;19;20018;-76
2023/07/31 02:42:20;;;;;;;8.00;1.30;;;;;;;14.27;100.00;98035.44;15290930;19;20022;-76
2023/07/31 02:47:48;;;;;;;5.80;1.50;;;;;;;14.23;100.00;98044.97;15295200;19;20031;-76
2023/07/31 02:53:12;;;;;;;5.10;1.40;;;;;;;14.16;100.00;98066.59;15295856;19;20007;-76
2023/07/31 02:58:37;;;;;;;5.85;1.40;;;;;;;14.05;100.00;98076.06;15294980;19;20031;-76
2023/07/31 03:04:04;;;;;;;6.05;1.58;;;;;;;14.01;100.00;98091.03;15286733;19;20026;-76
2023/07/31 03:09:29;;;;;;;2.67;1.10;;;;;;;13.97;100.00;98085.16;15291931;19;20014;-76
2023/07/31 03:15:00;;;;;;;5.50;1.35;;;;;;;13.93;100.00;98105.50;15285836;19;20018;-75
2023/07/31 03:20:27;;;;;;;4.25;1.40;;;;;;;13.91;100.00;98107.56;15291265;19;20525;-75
2023/07/31 03:26:05;;;;;;;5.45;1.60;;;;;;;13.87;100.00;98117.13;15284868;19;20025;-55
2023/07/31 03:31:30;;;;;;;4.78;1.30;;;;;;;13.83;100.00;98137.47;15291926;19;20022;-56
2023/07/31 03:36:58;;;;;;;3.88;1.40;;;;;;;13.76;100.00;98161.75;15287460;19;20082;-54
2023/07/31 03:42:22;;;;;;;4.43;1.40;;;;;;;13.70;100.00;98166.06;15285937;19;20022;-56
2023/07/31 03:47:47;;;;;;;4.57;1.50;;;;;;;13.64;100.00;98187.63;15285466;19;20037;-57
2023/07/31 03:53:14;;;;;;;4.60;1.60;;;;;;;13.63;100.00;98191.34;15287876;19;20015;-58
2023/07/31 03:58:40;;;;;;;4.47;1.67;;;;;;;13.59;100.00;98199.00;15292244;19;20019;-56
2023/07/31 04:04:05;;;;;;;5.95;1.70;;;;;;;13.59;100.00;98206.28;15287858;19;20014;-60
2023/07/31 04:09:34;;;;;;;4.88;1.50;;;;;;;13.59;100.00;98195.44;15287822;19;20022;-59
2023/07/31 04:14:59;;;;;;;5.60;1.58;;;;;;;13.60;100.00;98194.41;15286634;19;20085;-58
2023/07/31 04:20:24;;;;;;;4.20;1.58;;;;;;;13.60;100.00;98199.84;15285895;19;20010;-58
2023/07/31 04:25:59;;;;;;;3.42;1.38;;;;;;;13.59;100.00;98193.59;15286965;19;20337;-59
2023/07/31 04:31:23;;;;;;;3.67;1.50;;;;;;;13.65;100.00;98192.84;15289896;19;20031;-58
2023/07/31 04:36:48;;;;;;;3.72;1.45;;;;;;;13.73;100.00;98164.81;15284576;19;20373;-58
2023/07/31 04:42:15;;;;;;;4.75;1.40;;;;;;;13.78;100.00;98146.16;15281543;19;20074;-56
2023/07/31 04:47:40;;;;;;;3.15;1.35;;;;;;;13.86;100.00;98139.81;15287990;19;20034;-52
2023/07/31 04:53:04;;;;;;;4.28;1.30;;;;;;;13.87;100.00;98136.91;15285147;19;20518;-55
2023/07/31 04:58:32;;;;;;;4.72;1.40;;;;;;;13.89;100.00;98142.13;15288105;19;20629;-54
2023/07/31 05:03:56;;;;;;;5.15;1.50;;;;;;;13.91;100.00;98139.25;15280928;19;20026;-57
2023/07/31 05:09:15;;;;;;;5.03;1.48;;;;;;;13.97;100.00;98114.09;15291687;19;20014;-59
2023/07/31 05:14:42;;;;;;;4.93;1.42;;;;;;;14.01;100.00;98112.69;15279025;19;20025;-57
2023/07/31 05:20:09;;;;;;;4.38;1.50;;;;;;;14.04;100.00;98098.78;15288027;19;20021;-57
2023/07/31 05:25:40;;;;;;;4.65;1.60;;;;;;;14.09;100.00;98109.84;15277162;19;20029;-57
2023/07/31 05:31:08;;;;;;;3.58;1.17;;;;;;;14.23;100.00;98074.78;15285588;19;20014;-60
2023/07/31 05:36:32;;;;;;;3.28;1.52;;;;;;;14.35;100.00;98062.38;15280066;19;20082;-59
2023/07/31 05:41:56;;;;;;;4.22;1.48;;;;;;;14.51;100.00;98057.72;15281674;19;20017;-55
2023/07/31 05:47:24;;;;;;;4.07;1.42;;;;;;;14.59;100.00;98033.19;15279151;19;20014;-56
2023/07/31 05:52:48;;;;;;;3.25;1.55;;;;;;;14.65;100.00;98040.53;15283324;19;20014;-56
2023/07/31 05:58:13;;;;;;;3.28;1.38;;;;;;;14.72;100.00;98030.63;15279499;19;20042;-56
2023/07/31 06:03:40;;;;;;;3.22;1.30;;;;;;;14.79;100.00;98019.81;15277812;19;20022;-57
2023/07/31 06:09:05;;;;;;;3.80;1.25;;;;;;;14.87;100.00;98013.41;15281952;19;20025;-59
2023/07/31 06:14:30;;;;;;;4.20;1.27;;;;;;;14.92;100.00;98009.06;15279817;19;20015;-57
2023/07/31 06:19:58;;;;;;;3.42;1.35;;;;;;;15.01;100.00;98014.31;15297752;19;20435;-58
2023/07/31 06:25:29;;;;;;;3.28;1.25;;;;;;;15.08;100.00;97998.88;15291636;19;20024;-58
2023/07/31 06:30:53;;;;;;;4.13;1.40;;;;;;;15.18;100.00;97993.94;15288093;19;20018;-53
2023/07/31 06:36:21;;;;;;;3.00;1.30;;;;;;;15.32;100.00;97992.13;15292948;19;20018;-52
2023/07/31 06:41:47;;;;;;;4.30;1.30;;;;;;;15.43;100.00;97968.16;15289178;19;20023;-57
2023/07/31 06:47:13;;;;;;;3.05;1.20;;;;;;;15.52;100.00;97975.88;15287564;19;20022;-52
2023/07/31 06:52:40;;;;;;;2.65;1.15;;;;;;;15.59;100.00;97973.19;15294425;19;20028;-55
2023/07/31 06:58:06;;;;;;;3.50;1.35;;;;;;;15.70;100.00;97958.19;15294164;19;20361;-51
2023/07/31 07:03:31;;;;;;;4.65;1.38;;;;;;;15.73;100.00;97957.78;15286367;19;20042;-54
2023/07/31 07:08:58;;;;;;;2.83;1.08;;;;;;;15.80;100.00;97955.09;15293970;19;20025;-52
2023/07/31 07:14:22;;;;;;;6.15;1.35;;;;;;;15.80;100.00;97955.09;15290273;19;20025;-51
2023/07/31 07:19:50;;;;;;;2.25;1.20;;;;;;;15.83;100.00;97949.22;15288647;19;20021;-51
2023/07/31 07:25:17;;;;;;;3.10;1.27;;;;;;;15.85;100.00;97953.47;15283095;19;20544;-51
2023/07/31 07:30:42;;;;;;;3.20;1.13;;;;;;;15.92;100.00;97953.47;15287911;19;20718;-52
2023/07/31 07:36:09;;;;;;;3.05;1.20;;;;;;;16.01;100.00;97949.50;15279101;19;20014;-49
2023/07/31 07:41:37;;;;;;;6.32;1.30;;;;;;;16.15;100.00;97931.31;15290145;19;20027;-51
2023/07/31 07:47:02;;;;;;;2.00;1.13;;;;;;;16.32;100.00;97933.63;15287663;19;20023;-53
2023/07/31 07:52:26;;;;;;;2.33;1.10;;;;;;;16.44;100.00;97931.06;15280406;19;20007;-49
2023/07/31 07:57:53;;;;;;;2.88;1.20;;;;;;;16.56;100.00;97920.41;15286268;19;20097;-50
2023/07/31 08:03:19;;;;;;;3.55;1.40;;;;;;;16.68;100.00;97920.56;15283077;19;20019;-53
2023/07/31 08:08:44;;;;;;;2.22;1.10;;;;;;;16.73;100.00;97920.78;15281118;19;20019;-54
2023/07/31 08:14:14;;;;;;;2.53;1.27;;;;;;;16.76;100.00;97921.19;15284348;19;20011;-50
2023/07/31 08:19:38;;;;;;;3.03;1.23;;;;;;;16.83;100.00;97921.16;15289165;19;20019;-56
2023/07/31 08:25:05;;;;;;;2.92;1.30;;;;;;;16.92;100.00;97919.88;15272683;19;20690;-50
2023/07/31 08:30:33;;;;;;;2.33;1.23;;;;;;;17.02;100.00;97911.28;15292065;19;20011;-52
2023/07/31 08:35:59;;;;;;;2.55;1.27;;;;;;;17.18;100.00;97929.00;15287578;19;20030;-50
2023/07/31 08:41:25;;;;;;;3.88;1.30;;;;;;;17.33;100.00;97911.56;15283909;19;20018;-52
2023/07/31 08:46:55;;;;;;;3.85;1.20;;;;;;;17.52;100.00;97904.34;15284133;19;20022;-53
2023/07/31 08:52:19;;;;;;;3.88;1.17;;;;;;;17.64;100.00;97897.13;15289116;19;20014;-51
2023/07/31 08:57:47;;;;;;;2.33;1.20;;;;;;;17.75;100.00;97914.66;15281740;19;20026;-55
2023/07/31 09:03:18;;;;;;;2.75;1.30;;;;;;;17.76;100.00;97896.44;15281682;19;20022;-54
2023/07/31 09:08:44;;;;;;;4.28;1.35;;;;;;;17.81;100.00;97904.75;15279296;19;20022;-51
2023/07/31 09:14:11;;;;;;;3.83;1.20;;;;;;;17.69;100.00;97915.56;15284634;19;20714;-54
2023/07/31 09:19:39;;;;;;;2.85;1.20;;;;;;;17.40;100.00;97918.63;15293232;19;20025;-52
2023/07/31 09:25:17;;;;;;;3.03;1.23;;;;;;;17.24;100.00;97909.09;15286473;19;20018;-52
2023/07/31 09:30:55;;;;;;;1.85;1.10;;;;;;;17.26;100.00;97906.16;15282812;19;20035;-55
2023/07/31 09:36:28;;;;;;;1.70;1.00;;;;;;;17.33;100.00;97895.25;15287068;19;20014;-54
2023/07/31 09:41:57;;;;;;;1.80;1.20;;;;;;;17.46;100.00;97884.28;15278066;19;20086;-56
2023/07/31 09:47:26;;;;;;;4.20;1.40;;;;;;;17.72;100.00;97885.13;15286245;19;20026;-54
2023/07/31 09:52:54;;;;;;;2.17;1.17;;;;;;;18.06;100.00;97872.09;15291631;19;20042;-54
2023/07/31 09:58:20;;;;;;;1.83;1.17;;;;;;;18.36;100.00;97863.22;15296236;19;20418;-54
2023/07/31 10:03:47;;;;;;;1.65;1.17;;;;;;;18.56;100.00;97854.84;15294198;19;20039;-53
2023/07/31 10:09:18;;;;;;;1.90;1.00;;;;;;;18.72;100.00;97855.25;15295639;19;20014;-54
2023/07/31 10:14:44;;;;;;;2.28;1.13;;;;;;;18.83;100.00;97854.50;15296085;19;20024;-53
2023/07/31 10:20:11;;;;;;;2.42;1.30;;;;;;;18.88;100.00;97851.06;15303816;19;20477;-50
2023/07/31 10:25:41;;;;;;;2.10;1.20;;;;;;;18.98;100.00;97850.56;15295359;19;20054;-56
2023/07/31 10:31:07;;;;;;;1.77;1.10;;;;;;;19.02;100.00;97835.41;15300830;19;20007;-54
2023/07/31 10:36:31;;;;;;;3.10;1.40;;;;;;;19.17;100.00;97827.63;15292602;19;20025;-52
2023/07/31 10:41:58;;;;;;;2.15;1.23;;;;;;;19.36;100.00;97835.78;15301304;19;20479;-53
2023/07/31 10:47:24;;;;;;;1.85;1.13;;;;;;;19.56;100.00;97830.03;15299677;19;20019;-52
2023/07/31 10:52:54;;;;;;;1.98;1.20;;;;;;;19.61;100.00;97808.28;15290983;19;20018;-56
2023/07/31 10:58:22;;;;;;;4.00;1.42;;;;;;;19.69;100.00;97810.69;15297199;19;20022;-53
2023/07/31 11:03:51;;;;;;;2.33;1.17;;;;;;;19.75;100.00;97800.72;15291809;19;20014;-50
2023/07/31 11:09:22;;;;;;;2.55;1.38;;;;;;;19.73;100.00;97802.00;15295666;19;20018;-54
2023/07/31 11:14:56;;;;;;;4.72;1.40;;;;;;;19.59;100.00;97804.94;15294454;19;20011;-52
2023/07/31 11:20:21;;;;;;;2.97;1.42;;;;;;;19.58;100.00;97792.34;15297258;19;20018;-54
2023/07/31 11:25:47;;;;;;;3.45;1.20;;;;;;;19.56;100.00;97780.84;15292429;19;20077;-55
2023/07/31 11:31:14;;;;;;;2.08;1.40;;;;;;;19.50;100.00;97782.63;15296960;19;20010;-51
2023/07/31 11:36:40;;;;;;;3.33;1.23;;;;;;;19.45;100.00;97778.91;15293425;19;20022;-56
2023/07/31 11:42:08;;;;;;;2.78;1.50;;;;;;;19.43;100.00;97783.78;15298733;19;20078;-54
2023/07/31 11:47:37;;;;;;;2.50;1.48;;;;;;;19.59;100.00;97776.78;15292047;19;20089;-51
2023/07/31 11:53:08;;;;;;;3.22;1.10;;;;;;;19.78;100.00;97767.41;15289634;19;20031;-49
2023/07/31 11:58:34;;;;;;;2.38;1.02;;;;;;;19.83;100.00;97744.84;15288123;19;20509;-55
2023/07/31 12:04:02;;;;;;;2.75;1.35;;;;;;;19.87;100.00;97754.25;15290793;19;20018;-54
2023/07/31 12:09:27;;;;;;;1.90;1.20;;;;;;;20.02;100.00;97748.31;15281819;19;20859;-52
2023/07/31 12:14:51;;;;;;;1.92;1.30;;;;;;;20.08;100.00;97754.72;15288326;19;20476;-52
2023/07/31 12:20:19;;;;;;;1.85;1.20;;;;;;;20.21;100.00;97754.47;15286033;19;20074;-53
2023/07/31 12:25:43;;;;;;;1.48;1.17;;;;;;;20.44;100.00;97737.19;15283191;19;20420;-51
2023/07/31 12:31:10;;;;;;;2.10;1.30;;;;;;;20.52;100.00;97721.44;15288775;19;20758;-50
2023/07/31 12:36:39;;;;;;;3.85;1.23;;;;;;;20.47;100.00;97719.44;15290497;19;20018;-50
2023/07/31 12:42:05;;;;;;;2.47;1.30;;;;;;;20.41;100.00;97718.50;15282243;19;20006;-50
2023/07/31 12:47:29;;;;;;;2.17;1.20;;;;;;;20.37;100.00;97716.50;15284199;19;20056;-53
2023/07/31 12:52:57;;;;;;;2.25;1.10;;;;;;;20.37;100.00;97709.13;15285003;19;20014;-50
2023/07/31 12:58:22;;;;;;;1.17;1.00;;;;;;;20.44;100.00;97715.28;15280767;19;20408;-54
2023/07/31 13:03:48;;;;;;;3.60;1.27;;;;;;;20.48;100.00;97715.63;15287586;19;20422;-53
2023/07/31 13:09:17;;;;;;;1.38;1.20;;;;;;;20.69;100.00;97699.59;15281635;19;20014;-54
2023/07/31 13:14:42;;;;;;;2.10;1.17;;;;;;;20.92;100.00;97679.53;15280427;19;20029;-50
2023/07/31 13:20:10;;;;;;;1.77;1.15;;;;;;;21.18;100.00;97690.91;15282491;19;20014;-50
2023/07/31 13:25:37;;;;;;;2.40;1.20;;;;;;;21.23;100.00;97693.75;15288078;19;20025;-52
2023/07/31 13:31:02;;;;;;;2.72;1.08;;;;;;;20.96;100.00;97685.34;15303083;19;20026;-51
2023/07/31 13:36:28;;;;;;;1.48;1.00;;;;;;;21.02;100.00;97665.19;15301390;19;20491;-54
2023/07/31 13:41:55;;;;;;;1.15;0.90;;;;;;;20.82;100.00;97677.44;15297113;19;20029;-54
2023/07/31 13:47:20;;;;;;;2.22;1.23;;;;;;;20.56;100.00;97666.00;15302312;19;20014;-52
2023/07/31 13:52:45;;;;;;;1.60;1.00;;;;;;;20.48;100.00;97658.19;15294953;19;20368;-52
2023/07/31 13:58:12;;;;;;;1.77;1.10;;;;;;;20.30;100.00;97679.16;15295845;19;20555;-55
2023/07/31 14:03:38;;;;;;;2.22;1.02;;;;;;;20.35;100.00;97659.28;15299639;19;20028;-56
2023/07/31 14:09:05;;;;;;;1.33;1.00;;;;;;;20.50;100.00;97650.56;15294544;19;20022;-52
2023/07/31 14:14:33;;;;;;;3.15;1.05;;;;;;;20.39;100.00;97667.84;15301695;19;20074;-56
2023/07/31 14:19:59;;;;;;;1.33;1.10;;;;;;;20.26;100.00;97650.66;15296150;19;20085;-53
2023/07/31 14:25:24;;;;;;;1.88;1.10;;;;;;;20.24;100.00;97658.28;15294884;19;20033;-55
2023/07/31 14:30:51;;;;;;;2.97;1.40;;;;;;;20.31;100.00;97655.41;15295666;19;20029;-56
2023/07/31 14:36:16;;;;;;;2.25;1.20;;;;;;;20.29;100.00;97655.63;15295919;19;20014;-55
2023/07/31 14:41:41;;;;;;;4.28;1.20;;;;;;;20.36;100.00;97641.81;15293384;19;20043;-56
2023/07/31 14:47:08;;;;;;;2.05;1.30;;;;;;;20.51;100.00;97644.03;15297377;19;20075;-56
2023/07/31 14:52:34;;;;;;;3.97;1.35;;;;;;;20.66;100.00;97639.88;15289826;19;20014;-53
2023/07/31 14:57:58;;;;;;;2.95;1.40;;;;;;;20.64;100.00;97627.28;15293564;19;20025;-52
2023/07/31 15:03:27;;;;;;;3.38;1.13;;;;;;;20.57;100.00;97617.59;15290939;19;20054;-53
2023/07/31 15:08:51;;;;;;;1.48;1.20;;;;;;;20.49;100.00;97605.13;15292702;19;20006;-53
2023/07/31 15:14:17;;;;;;;3.75;1.40;;;;;;;20.38;100.00;97614.22;15292967;19;20024;-53
2023/07/31 15:19:44;;;;;;;2.35;1.35;;;;;;;20.34;100.00;97608.41;15289191;19;20006;-53
2023/07/31 15:25:10;;;;;;;2.15;1.20;;;;;;;20.26;100.00;97604.16;15287730;19;20419;-52
2023/07/31 15:30:35;;;;;;;3.88;1.30;;;;;;;20.22;100.00;97608.44;15294364;19;20077;-53
2023/07/31 15:36:02;;;;;;;3.25;1.40;;;;;;;20.19;100.00;97606.19;15293015;19;20028;-55
2023/07/31 15:41:29;;;;;;;4.25;1.30;;;;;;;20.17;100.00;97600.13;15289586;19;20030;-53
2023/07/31 15:46:54;;;;;;;4.35;1.55;;;;;;;20.15;100.00;97624.19;15292958;19;20078;-54
2023/07/31 15:52:21;;;;;;;4.75;1.30;;;;;;;20.15;100.00;97591.38;15293098;19;20371;-55
2023/07/31 15:57:46;;;;;;;3.55;1.30;;;;;;;20.15;100.00;97577.69;15286896;19;20021;-53
2023/07/31 16:03:10;;;;;;;2.50;1.35;;;;;;;20.18;100.00;97579.91;15284755;19;20032;-52
2023/07/31 16:08:41;;;;;;;3.13;1.45;;;;;;;20.17;100.00;97572.78;15286708;19;20033;-53
2023/07/31 16:14:05;;;;;;;3.03;1.30;;;;;;;20.20;100.00;97566.03;15287796;19;20014;-53
2023/07/31 16:19:31;;;;;;;2.03;1.27;;;;;;;20.15;100.00;97583.16;15290237;19;20014;-53
2023/07/31 16:24:58;;;;;;;4.03;1.50;;;;;;;20.14;100.00;97574.13;14779440;19;10000801;-54
2023/07/31 16:30:23;;;;;;;3.15;1.45;;;;;;;20.09;100.00;97573.19;15288430;19;20404;-54
2023/07/31 16:35:47;;;;;;;2.28;1.30;;;;;;;20.09;100.00;97554.03;15288833;19;20052;-55
2023/07/31 16:41:14;;;;;;;2.47;1.50;;;;;;;20.06;100.00;97566.31;15283230;19;20014;-52
2023/07/31 16:46:39;;;;;;;4.55;1.52;;;;;;;20.05;100.00;97552.91;15289791;19;20102;-54
2023/07/31 16:52:04;;;;;;;1.98;1.27;;;;;;;20.03;100.00;97550.38;15293565;19;20390;-53
2023/07/31 16:57:31;;;;;;;2.60;1.30;;;;;;;20.05;100.00;97542.78;15294557;19;20351;-53
2023/07/31 17:02:57;;;;;;;3.15;1.40;;;;;;;20.05;100.00;97533.75;15286610;19;20396;-53
2023/07/31 17:08:21;;;;;;;2.83;1.30;;;;;;;20.05;100.00;97528.28;15284395;19;20042;-53
2023/07/31 17:13:49;;;;;;;2.33;1.30;;;;;;;20.03;100.00;97539.44;15285117;19;20015;-50
2023/07/31 17:19:15;;;;;;;3.28;1.30;;;;;;;20.03;100.00;97528.50;15286598;19;20022;-57
2023/07/31 17:24:40;;;;;;;2.70;1.35;;;;;;;20.04;100.00;97529.38;15286631;19;20111;-56
2023/07/31 17:30:08;;;;;;;1.85;1.40;;;;;;;20.02;100.00;97533.16;15285854;19;20021;-55
2023/07/31 17:35:33;;;;;;;2.42;1.30;;;;;;;20.00;100.00;97527.09;15282733;19;20021;-53
2023/07/31 17:41:00;;;;;;;2.45;1.35;;;;;;;19.97;100.00;97524.84;15282785;19;20484;-53
2023/07/31 17:46:27;;;;;;;3.33;1.40;;;;;;;19.94;100.00;97524.53;15283195;19;20018;-53
2023/07/31 17:51:52;;;;;;;2.95;1.48;;;;;;;19.90;100.00;97512.41;15281579;19;20061;-56
2023/07/31 17:57:17;;;;;;;2.95;1.30;;;;;;;19.85;100.00;97513.97;15291611;19;20011;-51
2023/07/31 18:02:44;;;;;;;4.57;1.52;;;;;;;19.77;100.00;97519.78;15278656;19;20097;-51
2023/07/31 18:08:09;;;;;;;3.08;1.38;;;;;;;19.75;100.00;97515.66;15280422;19;20019;-52
2023/07/31 18:13:33;;;;;;;1.92;1.20;;;;;;;19.71;100.00;97505.19;15289449;19;20143;-55
2023/07/31 18:19:01;;;;;;;6.70;1.63;;;;;;;19.68;100.00;97502.97;15300126;19;20006;-52
2023/07/31 18:24:32;;;;;;;5.55;1.50;;;;;;;19.64;100.00;97509.97;15295487;19;20046;-49
2023/07/31 18:29:57;;;;;;;2.95;1.30;;;;;;;19.58;100.00;97510.94;15298238;19;20036;-54
2023/07/31 18:35:24;;;;;;;3.25;1.40;;;;;;;19.54;100.00;97491.47;15294430;19;20081;-55
2023/07/31 18:40:49;;;;;;;2.10;1.35;;;;;;;19.46;100.00;97494.59;15294929;19;20089;-55
2023/07/31 18:46:14;;;;;;;4.13;1.50;;;;;;;19.39;100.00;97467.41;15296464;19;20021;-55
2023/07/31 18:51:41;;;;;;;4.60;1.50;;;;;;;19.35;100.00;97463.50;15292995;19;20025;-57
2023/07/31 18:57:06;;;;;;;3.65;1.35;;;;;;;19.33;100.00;97462.94;15302191;19;20017;-55
2023/07/31 19:02:24;;;;;;;3.72;1.48;;;;;;;19.30;100.00;97454.38;15290450;19;20014;-54
2023/07/31 19:07:51;;;;;;;4.72;1.63;;;;;;;19.26;100.00;97456.75;15281697;19;20425;-56
2023/07/31 19:13:16;;;;;;;2.50;1.25;;;;;;;19.23;100.00;97466.28;15290161;19;20019;-53
2023/07/31 19:18:41;;;;;;;2.85;1.42;;;;;;;19.22;100.00;97464.63;15295562;19;20034;-55
2023/07/31 19:24:08;;;;;;;3.40;1.30;;;;;;;19.18;100.00;97468.06;15288499;19;20035;-54
2023/07/31 19:29:34;;;;;;;2.88;1.40;;;;;;;19.14;100.00;97464.16;15291592;19;20039;-55
2023/07/31 19:34:59;;;;;;;2.83;1.30;;;;;;;19.11;100.00;97464.66;15290443;19;20006;-52
2023/07/31 19:40:28;;;;;;;3.20;1.60;;;;;;;19.06;100.00;97460.72;15285751;19;20539;-54
2023/07/31 19:45:52;;;;;;;4.25;1.50;;;;;;;19.03;100.00;97450.28;15291425;19;20014;-54
2023/07/31 19:51:18;;;;;;;4.93;1.50;;;;;;;19.00;100.00;97447.22;15288548;19;20010;-55
2023/07/31 19:56:45;;;;;;;3.20;1.30;;;;;;;18.98;100.00;97455.66;15289621;19;20018;-55
2023/07/31 20:02:11;;;;;;;2.55;1.30;;;;;;;18.96;100.00;97446.88;15286959;19;20315;-55
2023/07/31 20:07:36;;;;;;;2.80;1.40;;;;;;;18.92;100.00;97435.56;15294519;19;20074;-56
2023/07/31 20:13:04;;;;;;;2.83;1.13;;;;;;;18.89;100.00;97444.22;15283858;19;20017;-53
2023/07/31 20:18:29;;;;;;;1.70;1.10;;;;;;;18.86;100.00;97422.06;15295004;19;20032;-60
2023/07/31 20:23:54;;;;;;;2.13;1.17;;;;;;;18.82;100.00;97404.50;15288667;19;20023;-55
2023/07/31 20:29:21;;;;;;;3.45;1.13;;;;;;;18.77;100.00;97414.22;15282972;19;20557;-52
2023/07/31 20:34:46;;;;;;;2.30;1.30;;;;;;;18.66;100.00;97428.69;15262810;19;20018;-57
2023/07/31 20:40:15;;;;;;;2.97;1.50;;;;;;;18.52;100.00;97424.56;15288024;19;20081;-53
2023/07/31 20:45:43;;;;;;;2.47;1.10;;;;;;;18.40;100.00;97419.94;15284503;19;20015;-52
2023/07/31 20:51:08;;;;;;;2.30;1.33;;;;;;;18.28;100.00;97410.94;15293973;19;20017;-55
2023/07/31 20:56:35;;;;;;;2.30;1.33;;;;;;;18.14;100.00;97424.78;15289058;19;20019;-54
2023/07/31 21:02:02;;;;;;;3.10;1.38;;;;;;;17.95;100.00;97417.69;15282861;19;20019;-55
2023/07/31 21:07:27;;;;;;;3.33;1.33;;;;;;;17.75;100.00;97423.47;15290477;19;20042;-53
2023/07/31 21:12:53;;;;;;;3.67;1.40;;;;;;;17.53;100.00;97419.38;15283523;19;20483;-53
2023/07/31 21:18:21;;;;;;;4.65;1.38;;;;;;;17.40;100.00;97433.16;15280524;19;20086;-56
2023/07/31 21:23:45;;;;;;;2.55;1.30;;;;;;;17.30;100.00;97428.25;15283571;19;20019;-53
2023/07/31 21:29:17;;;;;;;3.40;1.50;;;;;;;17.27;100.00;97427.88;15278095;19;20531;-53
2023/07/31 21:34:46;;;;;;;4.13;1.50;;;;;;;17.20;100.00;97428.81;15284482;19;20022;-55
2023/07/31 21:40:12;;;;;;;3.38;1.80;;;;;;;17.12;100.00;97431.00;15283179;19;20014;-52
2023/07/31 21:45:43;;;;;;;2.20;1.40;;;;;;;17.04;100.00;97432.16;15284113;19;20025;-53
2023/07/31 21:51:11;;;;;;;2.53;1.50;;;;;;;16.99;100.00;97426.56;15300686;19;20010;-53
2023/07/31 21:56:35;;;;;;;3.28;1.70;;;;;;;16.97;100.00;97415.09;15299751;19;20022;-53
2023/07/31 22:02:01;;;;;;;3.22;1.65;;;;;;;16.92;100.00;97421.19;15297390;19;20014;-51
2023/07/31 22:07:29;;;;;;;3.78;1.80;;;;;;;16.88;100.00;97422.69;15300509;19;20023;-52
2023/07/31 22:12:54;;;;;;;2.33;1.50;;;;;;;16.86;100.00;97414.75;15296168;19;20018;-51
2023/07/31 22:18:18;;;;;;;2.65;1.77;;;;;;;16.80;100.00;97407.47;15272830;19;20022;-55
2023/07/31 22:23:49;;;;;;;3.60;1.60;;;;;;;16.74;100.00;97381.19;15293734;19;20023;-51
2023/07/31 22:29:21;;;;;;;2.38;1.40;;;;;;;16.69;100.00;97378.31;15289687;19;20007;-53
2023/07/31 22:34:46;;;;;;;2.90;1.50;;;;;;;16.66;100.00;97374.19;15294080;19;20031;-53
2023/07/31 22:40:17;;;;;;;2.90;1.60;;;;;;;16.59;100.00;97371.53;15294147;19;20011;-51
2023/07/31 22:45:47;;;;;;;2.95;1.70;;;;;;;16.56;100.00;97377.41;15294242;19;20014;-51
2023/07/31 22:51:13;;;;;;;2.20;1.30;;;;;;;16.51;100.00;97358.25;15295332;19;20018;-52
2023/07/31 22:56:41;;;;;;;2.97;1.65;;;;;;;16.48;100.00;97356.78;15290389;19;20035;-51
2023/07/31 23:02:08;;;;;;;2.45;1.25;;;;;;;16.43;100.00;97351.22;15292119;19;20362;-52
2023/07/31 23:07:34;;;;;;;2.92;1.35;;;;;;;16.43;100.00;97337.63;15299148;19;20024;-54
2023/07/31 23:13:01;;;;;;;2.22;1.30;;;;;;;16.41;100.00;97328.00;15291577;19;20078;-52
2023/07/31 23:18:26;;;;;;;2.90;1.58;;;;;;;16.39;100.00;97332.84;15296345;19;20082;-53
2023/07/31 23:23:50;;;;;;;3.28;1.35;;;;;;;16.35;100.00;97328.91;15288696;19;20081;-54
2023/07/31 23:29:24;;;;;;;2.00;1.38;;;;;;;16.35;100.00;97313.44;15288546;19;20018;-55
2023/07/31 23:34:50;;;;;;;1.98;1.17;;;;;;;16.34;100.00;97292.78;15291300;19;20082;-52
2023/07/31 23:40:16;;;;;;;2.60;1.15;;;;;;;16.35;100.00;97277.28;15289238;19;20022;-52
2023/07/31 23:45:44;;;;;;;2.67;1.30;;;;;;;16.36;100.00;97265.34;15291842;19;20022;-52
2023/07/31 23:51:09;;;;;;;1.02;1.00;;;;;;;16.33;100.00;97259.31;15297811;19;20015;-53
2023/07/31 23:56:34;;;;;;;2.13;1.30;;;;;;;16.31;100.00;97261.41;15293209;19;20015;-54
